Time;durP1;ratioP1;P1;durP2;ratioP2;P2;SDS_P1;SDS_P2;PMS_P1;PMS_P2;Temp;Humidity;BMP_temperature;BMP_pressure;BME280_temperature;BME280_humidity;BME280_pressure;Samples;Min_cycle;Max_cycle;Signal;HPM_P1;HPM_P2
2023/08/17 00:00:39;;;;;;;17.70;8.00;;;;;;;22.53;66.11;101428.14;106995;1257;96469;-67
2023/08/17 00:03:27;;;;;;;20.30;7.70;;;;;;;22.47;65.99;101430.20;107006;1258;96335;-68
2023/08/17 00:05:56;;;;;;;16.10;8.40;;;;;;;22.43;66.08;101432.57;107048;1257;109112;-67
2023/08/17 00:08:24;;;;;;;19.40;7.80;;;;;;;22.39;66.40;101436.32;107030;1261;108862;-67
2023/08/17 00:10:52;;;;;;;20.70;8.30;;;;;;;22.33;66.33;101437.44;107013;1257;110061;-67
2023/08/17 00:13:20;;;;;;;23.80;8.60;;;;;;;22.31;66.41;101439.40;107041;1257;96332;-66
2023/08/17 00:15:48;;;;;;;18.90;7.90;;;;;;;22.28;66.60;101440.05;107019;1257;96990;-66
2023/08/17 00:18:16;;;;;;;16.30;7.60;;;;;;;22.27;66.72;101438.27;107073;1257;110589;-68
2023/08/17 00:20:45;;;;;;;18.60;7.30;;;;;;;22.24;66.93;101441.16;106940;1257;109302;-66
2023/08/17 00:23:13;;;;;;;19.10;8.20;;;;;;;22.21;67.55;101434.30;106898;1263;107096;-67
2023/08/17 00:25:42;;;;;;;18.10;8.10;;;;;;;22.16;67.23;101440.30;106948;1257;97836;-67
2023/08/17 00:28:10;;;;;;;20.40;7.20;;;;;;;22.14;67.25;101441.04;106986;1257;97898;-67
2023/08/17 00:30:39;;;;;;;29.50;8.00;;;;;;;22.10;67.51;101440.40;106884;1257;111882;-66
2023/08/17 00:33:07;;;;;;;23.10;7.80;;;;;;;22.07;67.79;101436.78;107039;1257;108948;-66
2023/08/17 00:35:35;;;;;;;27.40;7.40;;;;;;;22.04;67.74;101437.52;106877;1263;108193;-67
2023/08/17 00:38:03;;;;;;;14.40;7.60;;;;;;;22.01;67.71;101438.80;106814;1258;97840;-67
2023/08/17 00:40:32;;;;;;;19.00;8.00;;;;;;;21.98;67.76;101439.36;106833;1257;99030;-67
2023/08/17 00:43:00;;;;;;;19.50;8.10;;;;;;;21.97;67.90;101440.94;107020;1257;110811;-67
2023/08/17 00:45:29;;;;;;;15.80;7.80;;;;;;;21.94;68.09;101443.40;106969;1257;109886;-68
2023/08/17 00:47:58;;;;;;;14.60;7.40;;;;;;;21.90;68.19;101443.15;107018;1257;108888;-68
2023/08/17 00:50:29;;;;;;;18.20;7.30;;;;;;;21.86;68.53;101444.98;107049;1257;97792;-66
2023/08/17 00:52:57;;;;;;;16.70;7.10;;;;;;;21.85;68.44;101445.98;107040;1257;98446;-68
2023/08/17 00:55:28;;;;;;;22.40;8.80;;;;;;;21.82;68.69;101444.64;106980;1257;111395;-67
2023/08/17 00:57:57;;;;;;;16.40;7.50;;;;;;;21.82;68.90;101442.50;107059;1257;109971;-67
2023/08/17 01:00:29;;;;;;;21.40;7.10;;;;;;;21.79;68.92;101447.77;107058;1257;108029;-67
2023/08/17 01:02:58;;;;;;;15.20;7.70;;;;;;;21.76;69.44;101447.81;106881;1257;97757;-68
2023/08/17 01:05:26;;;;;;;17.90;6.90;;;;;;;21.68;69.53;101448.76;107014;1257;98375;-68
2023/08/17 01:07:56;;;;;;;21.90;7.90;;;;;;;21.62;69.42;101448.84;106987;1257;111819;-68
2023/08/17 01:10:54;;;;;;;15.20;7.40;;;;;;;21.58;69.50;101452.39;106980;1261;110812;-67
2023/08/17 01:13:53;;;;;;;17.60;6.70;;;;;;;21.56;69.19;101449.25;107069;1257;108613;-68
2023/08/17 01:16:39;;;;;;;24.60;8.30;;;;;;;21.56;69.28;101450.81;106772;1263;97831;-67
2023/08/17 01:19:11;;;;;;;15.80;6.50;;;;;;;21.57;69.37;101448.09;107067;1258;97714;-67
2023/08/17 01:21:50;;;;;;;17.60;7.20;;;;;;;21.58;69.21;101449.05;107047;1257;111224;-66
2023/08/17 01:24:19;;;;;;;20.70;6.60;;;;;;;21.58;69.12;101453.11;107040;1257;109083;-67
2023/08/17 01:26:48;;;;;;;15.50;7.40;;;;;;;21.56;69.22;101447.44;106948;1257;108547;-67
2023/08/17 01:29:16;;;;;;;14.50;6.80;;;;;;;21.53;69.67;101447.45;106872;1257;97831;-67
2023/08/17 01:31:56;;;;;;;14.10;7.00;;;;;;;21.51;69.59;101449.35;106990;1257;97733;-67
2023/08/17 01:34:27;;;;;;;11.00;6.70;;;;;;;21.49;69.46;101448.98;107020;1257;111002;-66
2023/08/17 01:37:01;;;;;;;18.50;6.80;;;;;;;21.46;69.38;101447.06;106890;1257;109887;-66
2023/08/17 01:39:37;;;;;;;18.30;7.30;;;;;;;21.44;69.28;101445.52;107024;1257;106830;-66
2023/08/17 01:42:07;;;;;;;21.00;6.90;;;;;;;21.43;69.14;101443.41;106980;1257;97926;-66
2023/08/17 01:44:35;;;;;;;12.80;6.20;;;;;;;21.43;69.10;101444.92;106993;1259;97923;-66
2023/08/17 01:47:04;;;;;;;12.90;7.00;;;;;;;21.43;69.08;101444.38;107030;1261;111152;-67
2023/08/17 01:49:33;;;;;;;15.50;7.40;;;;;;;21.43;69.03;101443.29;106964;1258;109691;-67
2023/08/17 01:52:02;;;;;;;13.50;6.50;;;;;;;21.41;69.36;101446.80;107042;1257;107150;-67
2023/08/17 01:54:30;;;;;;;13.90;6.30;;;;;;;21.39;69.28;101447.29;107060;1257;97852;-66
2023/08/17 01:56:58;;;;;;;24.00;7.10;;;;;;;21.36;69.27;101446.90;107007;1257;97801;-67
2023/08/17 01:59:26;;;;;;;21.30;7.10;;;;;;;21.34;69.46;101450.77;106902;1258;112029;-66
2023/08/17 02:01:55;;;;;;;14.00;6.30;;;;;;;21.30;70.14;101451.70;106911;1258;109834;-67
2023/08/17 02:04:24;;;;;;;12.00;6.50;;;;;;;21.24;70.14;101453.79;106891;1258;108833;-66
2023/08/17 02:06:52;;;;;;;15.10;7.00;;;;;;;21.22;70.16;101452.54;106925;1257;97919;-67
2023/08/17 02:09:20;;;;;;;15.80;7.10;;;;;;;21.20;70.20;101455.42;106900;1257;97949;-67
2023/08/17 02:11:50;;;;;;;10.90;7.00;;;;;;;21.18;70.23;101451.90;106963;1257;111329;-67
2023/08/17 02:14:19;;;;;;;19.70;6.60;;;;;;;21.17;70.14;101454.91;106996;1258;109731;-70
2023/08/17 02:16:47;;;;;;;23.60;6.60;;;;;;;21.15;70.54;101457.11;107005;1257;108352;-67
2023/08/17 02:19:16;;;;;;;22.30;6.80;;;;;;;21.10;70.63;101456.13;106927;1258;97859;-67
2023/08/17 02:21:45;;;;;;;15.00;6.70;;;;;;;21.07;70.39;101457.17;106991;1260;97861;-67
2023/08/17 02:24:13;;;;;;;11.00;6.40;;;;;;;21.04;70.27;101455.59;107014;1258;112280;-67
2023/08/17 02:26:41;;;;;;;15.70;6.30;;;;;;;21.02;70.59;101458.37;106988;1258;110030;-67
2023/08/17 02:29:10;;;;;;;16.20;6.80;;;;;;;21.00;70.40;101455.11;106866;1257;106513;-67
2023/08/17 02:31:38;;;;;;;24.20;7.10;;;;;;;20.99;70.36;101453.11;106937;1257;97960;-66
2023/08/17 02:34:06;;;;;;;19.30;6.70;;;;;;;20.96;70.44;101453.23;106885;1258;98368;-68
2023/08/17 02:36:35;;;;;;;12.40;6.00;;;;;;;20.94;70.84;101453.30;106933;1257;111748;-67
2023/08/17 02:39:03;;;;;;;15.20;6.90;;;;;;;20.88;71.32;101453.16;107005;1257;110156;-67
2023/08/17 02:41:32;;;;;;;20.90;6.60;;;;;;;20.84;70.98;101453.45;106982;1257;107994;-67
2023/08/17 02:44:02;;;;;;;16.40;6.30;;;;;;;20.83;70.86;101454.86;107027;1257;97834;-67
2023/08/17 02:46:30;;;;;;;17.00;7.30;;;;;;;20.83;71.12;101454.11;107009;1257;97740;-67
2023/08/17 02:48:58;;;;;;;27.90;6.90;;;;;;;20.82;70.98;101458.29;106971;1257;112024;-67
2023/08/17 02:51:27;;;;;;;22.10;6.40;;;;;;;20.80;70.88;101456.67;106878;1257;109638;-67
2023/08/17 02:53:55;;;;;;;16.00;7.00;;;;;;;20.79;70.85;101457.34;106897;1258;108033;-67
2023/08/17 02:56:24;;;;;;;18.40;7.50;;;;;;;20.79;70.98;101460.02;106985;1257;97734;-67
2023/08/17 02:58:52;;;;;;;22.80;7.20;;;;;;;20.80;70.95;101465.59;107032;1257;97676;-67
2023/08/17 03:01:20;;;;;;;11.60;6.30;;;;;;;20.79;70.92;101466.11;107028;1257;111812;-67
2023/08/17 03:03:49;;;;;;;17.90;7.10;;;;;;;20.77;70.93;101465.55;106967;1257;109480;-67
2023/08/17 03:06:18;;;;;;;20.40;7.80;;;;;;;20.77;71.02;101463.70;106980;1257;107152;-66
2023/08/17 03:08:46;;;;;;;18.30;7.10;;;;;;;20.78;71.04;101465.57;106885;1257;97849;-67
2023/08/17 03:11:14;;;;;;;16.40;7.30;;;;;;;20.80;71.07;101466.17;106942;1261;97702;-67
2023/08/17 03:13:42;;;;;;;15.80;7.40;;;;;;;20.82;70.96;101467.22;106980;1257;111414;-67
2023/08/17 03:16:11;;;;;;;23.00;9.00;;;;;;;20.82;71.01;101474.25;106877;1257;109088;-66
2023/08/17 03:18:39;;;;;;;25.60;7.40;;;;;;;20.82;70.95;101477.90;106888;1259;107117;-66
2023/08/17 03:21:11;;;;;;;18.80;7.90;;;;;;;20.82;70.91;101478.14;106937;1257;97730;-66
2023/08/17 03:23:40;;;;;;;13.00;7.40;;;;;;;20.82;71.09;101479.41;106971;1257;97720;-67
2023/08/17 03:26:10;;;;;;;14.50;7.40;;;;;;;20.82;71.35;101479.72;107130;1258;112372;-68
2023/08/17 03:28:38;;;;;;;18.00;7.60;;;;;;;20.79;71.58;101476.30;106974;1257;109901;-66
2023/08/17 03:31:08;;;;;;;18.90;8.00;;;;;;;20.76;71.23;101476.29;106848;1257;108097;-69
2023/08/17 03:33:37;;;;;;;26.40;8.00;;;;;;;20.76;71.26;101471.53;107024;1258;97933;-66
2023/08/17 03:36:06;;;;;;;20.00;8.00;;;;;;;20.75;71.58;101478.27;106990;1257;98413;-67
2023/08/17 03:38:34;;;;;;;16.40;7.10;;;;;;;20.73;72.23;101480.31;107144;1257;112175;-67
2023/08/17 03:41:04;;;;;;;17.90;7.10;;;;;;;20.69;71.95;101478.52;107000;1261;109076;-67
2023/08/17 03:43:32;;;;;;;14.50;7.30;;;;;;;20.69;72.25;101483.17;106905;1257;108186;-67
2023/08/17 03:46:02;;;;;;;16.50;7.80;;;;;;;20.67;72.02;101483.94;107011;1258;97796;-67
2023/08/17 03:48:30;;;;;;;15.10;7.00;;;;;;;20.65;72.39;101483.37;107011;1257;97974;-67
2023/08/17 03:50:58;;;;;;;21.60;7.80;;;;;;;20.63;72.67;101486.19;106940;1257;111706;-66
2023/08/17 03:53:28;;;;;;;16.60;8.20;;;;;;;20.60;72.49;101485.94;106982;1257;109220;-67
2023/08/17 03:55:56;;;;;;;17.20;7.30;;;;;;;20.59;72.82;101486.05;106945;1258;107741;-66
2023/08/17 03:58:26;;;;;;;16.00;7.70;;;;;;;20.59;73.01;101488.08;107004;1258;97895;-67
2023/08/17 04:00:54;;;;;;;16.60;7.20;;;;;;;20.62;72.94;101489.79;106996;1257;97830;-68
2023/08/17 04:03:26;;;;;;;16.00;7.70;;;;;;;20.64;72.76;101489.02;106915;1257;112319;-67
2023/08/17 04:05:55;;;;;;;24.00;7.90;;;;;;;20.68;72.89;101488.33;107043;1257;109990;-67
2023/08/17 04:08:23;;;;;;;16.50;7.80;;;;;;;20.72;72.94;101480.52;106878;1257;108248;-67
2023/08/17 04:10:51;;;;;;;11.50;7.60;;;;;;;20.75;73.08;101483.48;106982;1257;97738;-66
2023/08/17 04:13:20;;;;;;;17.10;8.00;;;;;;;20.76;73.23;101483.40;106864;1262;97968;-66
2023/08/17 04:15:48;;;;;;;17.30;7.30;;;;;;;20.78;73.04;101481.63;107010;1261;111333;-66
2023/08/17 04:18:16;;;;;;;23.20;7.70;;;;;;;20.83;73.15;101480.05;106970;1257;109982;-68
2023/08/17 04:20:45;;;;;;;17.50;8.00;;;;;;;20.85;73.21;101480.09;107012;1261;107754;-67
2023/08/17 04:23:14;;;;;;;19.50;7.70;;;;;;;20.86;73.33;101482.91;106970;1257;97849;-68
2023/08/17 04:25:44;;;;;;;26.80;8.00;;;;;;;20.89;73.13;101482.67;106989;1257;97952;-68
2023/08/17 04:28:12;;;;;;;25.90;9.30;;;;;;;20.94;73.08;101481.36;106985;1257;112047;-67
2023/08/17 04:30:44;;;;;;;21.50;8.50;;;;;;;21.00;72.98;101485.43;107088;1258;109878;-67
2023/08/17 04:33:12;;;;;;;29.20;8.10;;;;;;;21.07;72.92;101481.09;106955;1258;109031;-67
2023/08/17 04:35:41;;;;;;;18.50;7.90;;;;;;;21.16;72.89;101481.50;106848;1257;97852;-67
2023/08/17 04:38:09;;;;;;;28.80;8.90;;;;;;;21.22;72.66;101478.76;106944;1257;97815;-68
2023/08/17 04:40:38;;;;;;;25.30;7.90;;;;;;;21.26;72.35;101475.80;106978;1257;111474;-68
2023/08/17 04:43:09;;;;;;;23.30;8.50;;;;;;;21.32;72.40;101474.41;107008;1257;109709;-67
2023/08/17 04:45:38;;;;;;;34.50;12.10;;;;;;;21.38;72.44;101472.79;106924;1257;107431;-67
2023/08/17 04:48:07;;;;;;;27.90;9.10;;;;;;;21.44;72.40;101473.86;106881;1259;97829;-68
2023/08/17 04:50:36;;;;;;;23.60;9.50;;;;;;;21.49;72.36;101472.66;106963;1258;98851;-68
2023/08/17 04:53:04;;;;;;;36.30;9.50;;;;;;;21.53;72.19;101470.11;106867;1257;113176;-67
2023/08/17 04:55:32;;;;;;;15.00;8.60;;;;;;;21.60;72.19;101466.38;107021;1257;108829;-67
2023/08/17 04:58:02;;;;;;;23.30;8.40;;;;;;;21.68;72.02;101467.79;106900;1257;108209;-67
2023/08/17 05:00:30;;;;;;;31.70;8.00;;;;;;;21.71;71.83;101466.27;107004;1257;97922;-67
2023/08/17 05:02:59;;;;;;;17.30;7.60;;;;;;;21.75;71.66;101469.96;106952;1257;97704;-67
2023/08/17 05:05:32;;;;;;;20.50;8.40;;;;;;;21.81;71.54;101468.00;106984;1261;110841;-66
2023/08/17 05:08:01;;;;;;;20.00;7.20;;;;;;;21.85;71.18;101465.02;106966;1257;109524;-67
2023/08/17 05:10:30;;;;;;;28.50;7.80;;;;;;;21.92;71.21;101466.40;106959;1261;107894;-66
2023/08/17 05:12:58;;;;;;;18.70;7.30;;;;;;;21.99;70.88;101464.45;106926;1257;97924;-66
2023/08/17 05:15:29;;;;;;;14.50;7.50;;;;;;;22.02;70.74;101466.92;106977;1257;97866;-66
2023/08/17 05:17:57;;;;;;;27.40;7.60;;;;;;;22.08;70.50;101468.75;106963;1257;112350;-67
2023/08/17 05:20:26;;;;;;;20.10;8.50;;;;;;;22.16;70.59;101466.85;106914;1256;109708;-66
2023/08/17 05:22:54;;;;;;;16.70;7.00;;;;;;;22.25;70.24;101464.10;107008;1257;107106;-66
2023/08/17 05:25:26;;;;;;;14.60;7.10;;;;;;;22.30;69.62;101466.50;107026;1257;97831;-68
2023/08/17 05:27:54;;;;;;;19.10;7.70;;;;;;;22.37;69.34;101465.85;106956;1257;97849;-67
2023/08/17 05:30:23;;;;;;;31.60;8.40;;;;;;;22.41;68.70;101466.50;106990;1259;111953;-66
2023/08/17 05:32:51;;;;;;;26.10;8.50;;;;;;;22.47;68.27;101466.09;106985;1257;108649;-66
2023/08/17 05:35:20;;;;;;;22.30;8.40;;;;;;;22.51;68.10;101463.89;106838;1263;107950;-66
2023/08/17 05:37:48;;;;;;;24.50;12.70;;;;;;;22.58;67.43;101462.63;106944;1257;97860;-67
2023/08/17 05:40:17;;;;;;;31.90;17.70;;;;;;;22.63;67.14;101462.16;107003;1258;97820;-66
2023/08/17 05:42:45;;;;;;;54.10;25.40;;;;;;;22.67;67.10;101457.09;106960;1257;111551;-67
2023/08/17 05:45:14;;;;;;;50.50;25.80;;;;;;;22.72;66.81;101456.45;107024;1257;109671;-67
2023/08/17 05:47:42;;;;;;;72.50;35.10;;;;;;;22.79;66.70;101455.08;106956;1258;109438;-67
2023/08/17 05:50:10;;;;;;;96.10;52.90;;;;;;;22.87;66.44;101453.64;106974;1257;97936;-67
2023/08/17 05:52:41;;;;;;;97.50;51.10;;;;;;;22.93;66.15;101457.88;106998;1261;97752;-66
2023/08/17 05:55:10;;;;;;;93.60;56.40;;;;;;;23.01;65.95;101456.37;106984;1257;112283;-67
2023/08/17 05:57:38;;;;;;;103.40;54.90;;;;;;;23.07;65.78;101456.23;107023;1257;109888;-67
2023/08/17 06:00:10;;;;;;;101.60;56.80;;;;;;;23.13;65.70;101456.73;106987;1257;108285;-66
2023/08/17 06:02:43;;;;;;;100.00;59.40;;;;;;;23.19;65.49;101454.61;106948;1258;97706;-67
2023/08/17 06:05:12;;;;;;;103.10;58.60;;;;;;;23.23;65.18;101456.14;106964;1258;97691;-67
2023/08/17 06:07:40;;;;;;;89.70;49.90;;;;;;;23.29;65.07;101453.41;106943;1258;111748;-66
2023/08/17 06:10:10;;;;;;;86.30;48.30;;;;;;;23.35;64.85;101454.97;106959;1261;109703;-67
2023/08/17 06:12:38;;;;;;;97.50;46.10;;;;;;;23.41;64.64;101453.14;106938;1257;108147;-67
2023/08/17 06:15:07;;;;;;;74.60;40.20;;;;;;;23.47;64.46;101455.38;106909;1257;97818;-67
2023/08/17 06:17:35;;;;;;;60.50;34.00;;;;;;;23.52;64.17;101452.36;107007;1257;97721;-67
2023/08/17 06:20:05;;;;;;;53.50;30.80;;;;;;;23.55;63.50;101448.24;106965;1257;112488;-67
2023/08/17 06:22:33;;;;;;;50.90;27.20;;;;;;;23.60;63.29;101454.59;107013;1257;110526;-66
2023/08/17 06:25:01;;;;;;;50.20;23.90;;;;;;;23.67;63.03;101453.64;107179;1257;108318;-67
2023/08/17 06:27:30;;;;;;;34.60;17.30;;;;;;;23.76;63.01;101457.64;107068;1257;97820;-65
2023/08/17 06:29:58;;;;;;;32.40;16.80;;;;;;;23.84;62.93;101455.79;106961;1261;97817;-68
2023/08/17 06:32:26;;;;;;;33.20;16.50;;;;;;;23.93;62.59;101455.40;106934;1259;110699;-68
2023/08/17 06:34:54;;;;;;;30.00;15.00;;;;;;;24.03;62.15;101456.40;106949;1257;109671;-66
2023/08/17 06:37:23;;;;;;;22.60;10.20;;;;;;;24.13;61.55;101456.85;106909;1257;108721;-67
2023/08/17 06:39:51;;;;;;;19.70;12.10;;;;;;;24.26;61.25;101451.61;106969;1257;97839;-68
2023/08/17 06:42:19;;;;;;;24.70;10.60;;;;;;;24.40;60.93;101455.79;106933;1257;97690;-67
2023/08/17 06:44:48;;;;;;;35.00;10.90;;;;;;;24.49;60.62;101454.86;106938;1257;111494;-67
2023/08/17 06:47:16;;;;;;;24.40;10.30;;;;;;;24.59;60.16;101455.73;106946;1257;109199;-65
2023/08/17 06:49:45;;;;;;;24.40;11.10;;;;;;;24.68;59.77;101452.66;106913;1261;108260;-66
2023/08/17 06:52:14;;;;;;;29.40;12.50;;;;;;;24.77;59.00;101454.73;106934;1258;98505;-66
2023/08/17 06:54:42;;;;;;;20.50;6.00;;;;;;;24.86;58.46;101451.45;106579;1257;505944;-67
2023/08/17 06:57:10;;;;;;;20.60;5.90;;;;;;;24.96;57.31;101447.33;106917;1257;111405;-67
2023/08/17 06:59:39;;;;;;;24.40;5.90;;;;;;;25.06;57.02;101447.38;106935;1261;109069;-66
2023/08/17 07:02:07;;;;;;;18.40;5.90;;;;;;;25.17;57.26;101449.12;106968;1259;108059;-67
2023/08/17 07:04:35;;;;;;;17.70;5.60;;;;;;;25.27;57.02;101446.29;106906;1258;97869;-68
2023/08/17 07:07:04;;;;;;;15.50;3.90;;;;;;;25.38;56.63;101448.19;106907;1259;98380;-67
2023/08/17 07:09:32;;;;;;;17.90;4.70;;;;;;;25.49;56.03;101445.41;106957;1257;111596;-68
2023/08/17 07:12:00;;;;;;;14.40;5.10;;;;;;;25.60;56.11;101444.38;106982;1257;109687;-67
2023/08/17 07:14:28;;;;;;;6.70;3.30;;;;;;;25.72;55.83;101441.27;106908;1261;108576;-68
2023/08/17 07:16:56;;;;;;;11.60;4.00;;;;;;;25.83;55.41;101440.25;106925;1257;97812;-67
2023/08/17 07:19:25;;;;;;;14.60;3.20;;;;;;;25.95;54.03;101442.93;107007;1258;97941;-67
2023/08/17 07:22:13;;;;;;;10.40;2.90;;;;;;;26.05;53.65;101441.98;106971;1261;112097;-67
2023/08/17 07:24:42;;;;;;;7.20;3.10;;;;;;;26.14;52.60;101442.90;106973;1259;109258;-68
2023/08/17 07:27:10;;;;;;;12.30;4.40;;;;;;;26.24;52.78;101434.69;106994;1261;108249;-65
2023/08/17 07:29:39;;;;;;;8.40;3.10;;;;;;;26.34;51.74;101431.54;106996;1258;97900;-68
2023/08/17 07:32:07;;;;;;;9.00;3.30;;;;;;;26.46;51.05;101436.27;106921;1258;97833;-68
2023/08/17 07:34:36;;;;;;;5.30;2.50;;;;;;;26.55;50.88;101434.40;107005;1257;111016;-68
2023/08/17 07:37:05;;;;;;;7.50;3.20;;;;;;;26.64;49.30;101428.11;106977;1258;109071;-67
2023/08/17 07:39:34;;;;;;;11.30;3.20;;;;;;;26.73;49.20;101430.05;106956;1257;107173;-67
2023/08/17 07:42:02;;;;;;;14.80;2.70;;;;;;;26.82;49.47;101428.17;106961;1257;97852;-67
2023/08/17 07:44:31;;;;;;;12.60;3.30;;;;;;;26.92;49.71;101426.20;107037;1259;98985;-67
2023/08/17 07:46:59;;;;;;;8.10;3.00;;;;;;;27.02;48.48;101422.08;107058;1258;110731;-66
2023/08/17 07:49:29;;;;;;;3.90;2.80;;;;;;;27.12;47.43;101425.36;106986;1261;109736;-67
2023/08/17 07:52:00;;;;;;;10.60;2.70;;;;;;;27.19;48.49;101427.48;106972;1261;107063;-67
2023/08/17 07:54:29;;;;;;;6.00;3.90;;;;;;;27.28;48.19;101429.75;106947;1257;97907;-66
2023/08/17 07:56:57;;;;;;;5.30;2.50;;;;;;;27.38;47.07;101430.72;106937;1257;98374;-67
2023/08/17 07:59:26;;;;;;;7.10;2.20;;;;;;;27.47;47.28;101424.30;107013;1259;113004;-67
2023/08/17 08:01:54;;;;;;;12.00;2.50;;;;;;;27.58;46.47;101428.54;107006;1257;109753;-67
2023/08/17 08:04:23;;;;;;;7.90;2.60;;;;;;;27.71;45.43;101432.48;106964;1261;108304;-67
2023/08/17 08:06:51;;;;;;;8.40;2.80;;;;;;;27.83;45.15;101431.64;107021;1257;97842;-67
2023/08/17 08:09:21;;;;;;;5.80;2.80;;;;;;;27.96;44.23;101432.26;106994;1258;97839;-67
2023/08/17 08:11:49;;;;;;;6.80;2.50;;;;;;;28.07;44.62;101437.46;106982;1259;112030;-67
2023/08/17 08:14:17;;;;;;;5.20;2.90;;;;;;;28.15;45.21;101434.54;106929;1257;108948;-67
2023/08/17 08:16:46;;;;;;;4.00;2.20;;;;;;;28.21;44.66;101434.41;106851;1258;107443;-67
2023/08/17 08:19:15;;;;;;;7.90;2.70;;;;;;;28.32;43.81;101430.89;106969;1259;97819;-69
2023/08/17 08:21:43;;;;;;;18.00;2.70;;;;;;;28.45;43.10;101431.26;106959;1257;97814;-67
2023/08/17 08:24:11;;;;;;;6.50;2.40;;;;;;;28.58;42.43;101429.80;107000;1261;111397;-68
2023/08/17 08:26:58;;;;;;;8.00;2.40;;;;;;;28.72;41.68;101434.97;107205;1258;109745;-67
2023/08/17 08:29:26;;;;;;;10.60;2.70;;;;;;;28.78;41.54;101435.08;106896;1261;107942;-67
2023/08/17 08:31:54;;;;;;;5.70;2.80;;;;;;;28.83;41.82;101429.40;106943;1259;97865;-67
2023/08/17 08:34:23;;;;;;;7.80;2.50;;;;;;;28.95;41.23;101429.81;106938;1263;97707;-68
2023/08/17 08:36:51;;;;;;;5.80;2.90;;;;;;;29.04;41.75;101433.23;106900;1258;111924;-67
2023/08/17 08:39:19;;;;;;;11.20;3.00;;;;;;;29.14;41.48;101426.08;106928;1259;110020;-67
2023/08/17 08:41:48;;;;;;;9.90;2.90;;;;;;;29.28;41.35;101425.20;106933;1257;107878;-68
2023/08/17 08:44:16;;;;;;;9.50;4.00;;;;;;;29.44;41.85;101424.08;106956;1258;97818;-67
2023/08/17 08:46:45;;;;;;;8.20;2.40;;;;;;;29.58;41.40;101423.13;106971;1257;98455;-68
2023/08/17 08:49:20;;;;;;;15.40;3.00;;;;;;;29.69;40.92;101421.40;107004;1257;111807;-68
2023/08/17 08:51:51;;;;;;;7.70;2.60;;;;;;;29.81;41.11;101416.27;106990;1259;108977;-68
2023/08/17 08:54:25;;;;;;;12.50;3.10;;;;;;;29.91;40.44;101413.38;106915;1258;107518;-67
2023/08/17 08:57:05;;;;;;;7.40;2.60;;;;;;;30.02;40.03;101412.13;106936;1257;97804;-68
2023/08/17 08:59:35;;;;;;;11.80;2.80;;;;;;;30.14;40.00;101410.83;106936;1263;97885;-66
2023/08/17 09:02:04;;;;;;;10.00;2.80;;;;;;;30.28;39.77;101407.55;106950;1259;111902;-67
2023/08/17 09:04:32;;;;;;;16.40;2.90;;;;;;;30.40;39.38;101401.63;106971;1257;108344;-68
2023/08/17 09:07:01;;;;;;;10.40;2.60;;;;;;;30.55;38.87;101404.80;106933;1259;108817;-68
2023/08/17 09:09:32;;;;;;;13.70;2.40;;;;;;;30.72;38.66;101402.39;106953;1259;97746;-67
2023/08/17 09:12:00;;;;;;;7.20;2.50;;;;;;;30.90;38.21;101399.79;106941;1257;97712;-68
2023/08/17 09:14:28;;;;;;;9.20;2.90;;;;;;;31.09;37.97;101399.49;106941;1257;111826;-68
2023/08/17 09:16:58;;;;;;;12.40;2.90;;;;;;;31.33;38.06;101393.94;106919;1257;108651;-68
2023/08/17 09:19:27;;;;;;;5.40;2.20;;;;;;;31.57;37.55;101391.23;106922;1261;108480;-68
2023/08/17 09:21:56;;;;;;;8.40;2.40;;;;;;;31.78;37.34;101388.85;106939;1261;97839;-68
2023/08/17 09:24:24;;;;;;;5.70;2.40;;;;;;;32.02;36.14;101386.77;106990;1257;98522;-67
2023/08/17 09:26:54;;;;;;;8.50;2.10;;;;;;;32.22;35.28;101380.97;106936;1259;111213;-67
2023/08/17 09:29:22;;;;;;;6.60;2.00;;;;;;;32.47;34.21;101375.85;107028;1257;109958;-68
2023/08/17 09:31:51;;;;;;;10.80;2.70;;;;;;;32.63;33.16;101377.44;107074;1257;106946;-67
2023/08/17 09:34:19;;;;;;;4.70;1.90;;;;;;;32.85;33.52;101377.84;106986;1259;97853;-68
2023/08/17 09:36:48;;;;;;;8.30;1.80;;;;;;;33.20;33.11;101372.90;106975;1261;97694;-68
2023/08/17 09:39:17;;;;;;;3.70;1.80;;;;;;;33.66;32.29;101377.02;106941;1259;111808;-66
2023/08/17 09:41:46;;;;;;;14.20;2.20;;;;;;;34.07;30.95;101370.79;106972;1257;110533;-68
2023/08/17 09:44:15;;;;;;;4.70;1.60;;;;;;;34.52;30.63;101368.27;106926;1259;108210;-67
2023/08/17 09:46:44;;;;;;;12.10;2.40;;;;;;;35.02;29.51;101363.50;106918;1259;97821;-68
2023/08/17 09:49:12;;;;;;;7.30;1.50;;;;;;;35.43;30.28;101371.61;107036;1257;97947;-66
2023/08/17 09:51:44;;;;;;;8.70;2.20;;;;;;;35.94;29.38;101369.70;106975;1259;110973;-67
2023/08/17 09:54:24;;;;;;;4.80;2.00;;;;;;;36.56;29.59;101373.80;106985;1257;110401;-66
2023/08/17 09:56:53;;;;;;;5.00;1.60;;;;;;;37.21;27.76;101367.77;107043;1259;108616;-67
2023/08/17 09:59:21;;;;;;;5.70;1.80;;;;;;;37.66;26.39;101358.47;107017;1256;97825;-66
2023/08/17 10:01:50;;;;;;;5.80;1.80;;;;;;;38.02;26.75;101367.40;106978;1261;97847;-65
2023/08/17 10:04:23;;;;;;;12.50;1.70;;;;;;;38.31;26.85;101366.58;106930;1257;111075;-65
2023/08/17 10:07:00;;;;;;;7.60;1.80;;;;;;;38.62;25.96;101360.36;106985;1258;109005;-65
2023/08/17 10:09:34;;;;;;;3.50;2.10;;;;;;;38.80;25.56;101360.11;106986;1257;108655;-65
2023/08/17 10:12:09;;;;;;;4.90;2.00;;;;;;;39.07;25.32;101359.59;107010;1259;97898;-65
2023/08/17 10:14:46;;;;;;;4.20;1.50;;;;;;;39.31;24.96;101362.47;107133;1259;97736;-66
2023/08/17 10:17:25;;;;;;;5.60;1.70;;;;;;;39.61;23.62;101357.32;106964;1259;111132;-65
2023/08/17 10:19:58;;;;;;;5.90;1.50;;;;;;;39.61;23.66;101347.01;106998;1257;109967;-66
2023/08/17 10:22:38;;;;;;;8.00;1.80;;;;;;;39.79;23.78;101344.92;107044;1257;108458;-66
2023/08/17 10:25:07;;;;;;;3.60;1.50;;;;;;;40.19;22.78;101349.34;107120;1261;97870;-66
2023/08/17 10:27:37;;;;;;;14.50;2.20;;;;;;;40.35;22.30;101342.98;107082;1259;97836;-65
2023/08/17 10:30:08;;;;;;;3.40;1.60;;;;;;;40.31;21.56;101339.38;107005;1257;111137;-66
2023/08/17 10:32:37;;;;;;;9.40;1.70;;;;;;;40.17;21.89;101329.80;107050;1258;109705;-66
2023/08/17 10:35:06;;;;;;;9.90;1.60;;;;;;;40.10;22.63;101328.23;107038;1259;107022;-65
2023/08/17 10:37:35;;;;;;;15.00;1.70;;;;;;;40.37;22.08;101331.05;107043;1261;97821;-66
2023/08/17 10:40:04;;;;;;;14.00;1.70;;;;;;;40.59;21.57;101326.91;106966;1258;97721;-66
2023/08/17 10:42:35;;;;;;;12.50;1.50;;;;;;;40.79;21.62;101323.50;107040;1257;112090;-67
2023/08/17 10:45:23;;;;;;;4.10;1.70;;;;;;;41.22;21.52;101321.34;106977;1257;109335;-65
2023/08/17 10:48:26;;;;;;;9.20;1.70;;;;;;;41.52;20.25;101319.55;106998;1257;108302;-66
2023/08/17 10:51:05;;;;;;;5.20;1.50;;;;;;;41.37;19.40;101319.61;107136;1257;97790;-65
2023/08/17 10:53:38;;;;;;;6.50;1.40;;;;;;;41.17;20.08;101317.80;107057;1256;97904;-65
2023/08/17 10:56:10;;;;;;;2.80;1.30;;;;;;;41.42;20.74;101322.92;106965;1259;112472;-65
2023/08/17 10:58:38;;;;;;;4.50;1.30;;;;;;;41.82;19.64;101318.88;106998;1257;110203;-66
2023/08/17 11:01:07;;;;;;;6.80;1.40;;;;;;;42.02;19.92;101311.11;106906;1257;107664;-66
2023/08/17 11:03:36;;;;;;;4.40;1.10;;;;;;;42.08;18.12;101314.52;106851;1263;98613;-66
2023/08/17 11:06:17;;;;;;;3.60;1.40;;;;;;;41.74;18.43;101313.94;106933;1258;98362;-66
2023/08/17 11:08:56;;;;;;;4.50;1.10;;;;;;;41.59;18.44;101315.30;106900;1259;112339;-66
2023/08/17 11:11:30;;;;;;;3.50;1.30;;;;;;;41.82;19.38;101311.20;106938;1259;109853;-66
2023/08/17 11:13:58;;;;;;;1.70;1.20;;;;;;;42.32;18.57;101305.05;106870;1258;108754;-67
2023/08/17 11:16:27;;;;;;;10.50;1.30;;;;;;;42.56;18.68;101308.15;106901;1258;97847;-67